Terrell, TX

1:40 AM CDT on September 18, 2014 (GMT -0500)
Terrell Municipal | Change Station
CLOSE
Current Station
Airport
Location: Terrell,
Elevation: 476 ft
Nearby Weather Stations

Elev 476 ft 32.71 °N, 96.27 °W | Updated 47 minutes ago

Mostly Cloudy
Mostly Cloudy
80 °F
Feels Like 84 °F
N
8
Wind Variable Wind from SSW

Today
High -- | Low -- °F
--% Chance of Precip.
Yesterday
High -- | Low -- °F
Precip. -- in
7:10 AM 7:27 PM
Waning Crescent, 29% visible
Pressure 29.89 in
Visibility 10.0 miles
Clouds Clear
Heat Index 84 °F
Dew Point 72 °F
Humidity 76%
Rainfall 0.00 in
Snow Depth Not available.
UV 0 out of 12
Pollen 10.60 out of 12
Ozone Good
PM2.5 Moderate
Flu Activity Not available.
METAR KTRL 180553Z AUTO 21007KT 10SM CLR 27/22 A2991 RMK AO2 SLP122 T02670222 10300 20267 403390222 50005

More Conditions Fewer Conditions

Pressure 29.89 in
Visibility 10.0 miles
Clouds Clear
Heat Index 84 °F
Dew Point 72 °F
Humidity 76%
Rainfall 0.00 in
Snow Depth Not available.
UV 0 out of 12
Pollen 10.60 out of 12
Ozone Good
PM2.5 Moderate
Flu Activity Not available.
METAR KTRL 180553Z AUTO 21007KT 10SM CLR 27/22 A2991 RMK AO2 SLP122 T02670222 10300 20267 403390222 50005

More Conditions Fewer Conditions

Nowcast | as of 1:05 am CDT on September 18, 2014

An area of showers and thunderstorms will move south from southeast Oklahoma and affect portions of Lamar and fanning County through 3 am. Cloud to ground lightning...wind gusts to 40 mph and brief heavy rainfall will accompany this activity as it moves south at 30 mph. Another area of rain and thunderstorms will continue south of a Lampasas to Palestine line through 3 am. This activity will remain nearly stationary and produce some heavy rainfall and localized flooding...especially between Cameron and Hearne.

×

10-Day Weather Forecast

Almanac

Astronomy

Sep. 18, 2014 Rise Set
Actual Time 7:10 AM CDT 7:27 PM CDT
Civil Twilight 6:46 AM CDT 7:51 PM CDT
Nautical Twilight 6:17 AM CDT 8:20 PM CDT
Astronomical Twilight 5:48 AM CDT 8:49 PM CDT
Moon 2:16 AM CDT 4:07 PM CDT
Length of Visible Light 13h 05m
Length of Day
12h 16m
Tomorrow will be 1m 59s shorter.
Waning Crescent, 29% of the Moon is Illuminated
Today
Waning Crescent
Sep 24
New
Oct 1
First Quarter
Oct 8
Full
Oct 15
Last Quarter

Today's Extremes

State Highs State Lows

Community

WunderPhotos

Upload Photos

1,754,298 photos uploaded!

Nearby

Air Quality

  Air Quality AQ Index Pollutant
Yesterday Moderate
OZONE
Yesterday Moderate
PM2.5
Current Moderate
PM2.5
Current Good
OZONE
Wednesday Moderate
OZONE
Wednesday Good
PM10
Thursday Good
OZONE
Thursday Good
PM10
Friday Good
OZONE
Friday Good
PM10
Saturday Good
OZONE
Saturday Good
PM10

Snow Depth

Station Depth Elevation
No new snow has been reported.

Earthquake Activity

City Distance Mag. Time & Date
No recent earthquake activity has been reported nearby.
Minimum magnitude displayed is 2.5.

Coastal Water Temperatures

Place Temperature
No Stations Reporting

Nearby Weather Stations